createdAt,value
2022-09-24T00:00:23.660Z,4.90
2022-09-24T00:02:45.121Z,4.33
2022-09-24T00:05:06.983Z,4.90
2022-09-24T00:07:28.409Z,4.93
2022-09-24T00:09:49.827Z,4.67
2022-09-24T00:12:13.167Z,4.67
2022-09-24T00:14:34.727Z,5.10
2022-09-24T00:16:56.141Z,4.90
2022-09-24T00:19:17.626Z,4.37
2022-09-24T00:21:40.248Z,4.60
2022-09-24T00:24:04.887Z,4.87
2022-09-24T00:26:45.207Z,4.93
2022-09-24T00:29:08.866Z,4.80
2022-09-24T00:31:31.171Z,4.90
2022-09-24T00:33:53.470Z,4.60
2022-09-24T00:36:15.635Z,4.90
2022-09-24T00:38:37.100Z,4.90
2022-09-24T00:40:59.748Z,5.10
2022-09-24T00:43:23.743Z,4.43
2022-09-24T00:45:45.164Z,4.27
2022-09-24T00:48:08.457Z,4.70
2022-09-24T00:50:34.984Z,4.40
2022-09-24T00:53:01.696Z,4.90
2022-09-24T00:55:24.627Z,4.37
2022-09-24T00:57:48.696Z,4.60
2022-09-24T01:00:11.056Z,4.33
2022-09-24T01:02:35.434Z,4.40
2022-09-24T01:04:57.403Z,4.60
2022-09-24T01:07:18.827Z,4.87
2022-09-24T01:09:40.380Z,4.90
2022-09-24T01:12:28.517Z,5.17
2022-09-24T01:15:06.911Z,4.70
2022-09-24T01:17:40.178Z,4.80
2022-09-24T01:20:33.050Z,4.97
2022-09-24T01:23:17.116Z,4.20
2022-09-24T01:26:01.305Z,4.47
2022-09-24T01:28:38.094Z,4.67
2022-09-24T01:31:08.683Z,4.40
2022-09-24T01:33:34.049Z,4.60
2022-09-24T01:36:00.674Z,4.37
2022-09-24T01:38:28.707Z,4.43
2022-09-24T01:40:51.962Z,4.73
2022-09-24T01:43:15.996Z,4.43
2022-09-24T01:45:39.445Z,4.67
2022-09-24T01:48:01.855Z,5.13
2022-09-24T01:50:25.086Z,4.70
2022-09-24T01:52:55.950Z,4.67
2022-09-24T01:55:21.733Z,4.10
2022-09-24T01:57:48.759Z,4.37
2022-09-24T02:00:21.841Z,4.30
2022-09-24T02:02:53.383Z,4.83
2022-09-24T02:05:21.974Z,4.30
2022-09-24T02:08:05.019Z,5.27
2022-09-24T02:10:30.649Z,4.67
2022-09-24T02:13:01.655Z,4.73
2022-09-24T02:15:33.058Z,5.20
2022-09-24T02:17:58.018Z,5.07
2022-09-24T02:20:21.925Z,4.63
2022-09-24T02:22:44.468Z,4.77
2022-09-24T02:25:10.477Z,4.17
2022-09-24T02:27:31.995Z,4.30
2022-09-24T02:29:53.427Z,5.17
2022-09-24T02:32:19.866Z,5.00
2022-09-24T02:34:50.014Z,5.10
2022-09-24T02:37:13.122Z,5.40
2022-09-24T02:39:35.029Z,5.77
2022-09-24T02:41:58.209Z,4.83
2022-09-24T02:44:20.493Z,4.83
2022-09-24T02:46:42.971Z,4.90
2022-09-24T02:49:04.526Z,4.27
2022-09-24T02:51:26.450Z,4.50
2022-09-24T02:53:47.892Z,4.40
2022-09-24T02:56:09.421Z,4.83
2022-09-24T02:58:30.964Z,4.50
2022-09-24T03:00:53.671Z,4.00
2022-09-24T03:03:15.277Z,4.67
2022-09-24T03:05:36.783Z,4.50
2022-09-24T03:07:58.848Z,4.30
2022-09-24T03:10:20.317Z,4.50
2022-09-24T03:12:43.699Z,4.60
2022-09-24T03:15:05.685Z,5.10
2022-09-24T03:17:28.362Z,4.70
2022-09-24T03:19:49.838Z,5.10
2022-09-24T03:22:11.241Z,4.47
2022-09-24T03:24:32.683Z,5.00
2022-09-24T03:26:54.168Z,5.03
2022-09-24T03:29:15.610Z,4.63
2022-09-24T03:31:37.116Z,5.00
2022-09-24T03:33:59.317Z,5.07
2022-09-24T03:36:23.176Z,5.17
2022-09-24T03:38:46.177Z,5.57
2022-09-24T03:41:08.909Z,4.90
2022-09-24T03:43:31.366Z,4.73
2022-09-24T03:45:53.462Z,4.60
2022-09-24T03:48:16.202Z,4.93
2022-09-24T03:50:38.389Z,4.73
2022-09-24T03:52:59.810Z,5.10
2022-09-24T03:55:21.225Z,5.13
2022-09-24T03:57:42.670Z,4.83
2022-09-24T04:00:04.875Z,5.70
2022-09-24T04:02:26.391Z,5.60
2022-09-24T04:04:47.937Z,5.40
2022-09-24T04:07:09.378Z,7.63
2022-09-24T04:09:31.021Z,11.50
2022-09-24T04:11:53.236Z,8.87
2022-09-24T04:14:15.333Z,11.30
2022-09-24T04:16:36.809Z,10.40
2022-09-24T04:18:58.254Z,6.10
2022-09-24T04:21:19.694Z,5.13
2022-09-24T04:23:41.125Z,5.37
2022-09-24T04:26:02.591Z,5.20
2022-09-24T04:28:25.260Z,5.40
2022-09-24T04:30:46.669Z,5.07
2022-09-24T04:33:08.514Z,5.30
2022-09-24T04:35:32.135Z,5.33
2022-09-24T04:37:53.706Z,5.17
2022-09-24T04:40:16.257Z,5.90
2022-09-24T04:42:39.252Z,6.13
2022-09-24T04:45:01.060Z,5.80
2022-09-24T04:47:24.300Z,5.80
2022-09-24T04:49:45.900Z,5.80
2022-09-24T04:52:07.337Z,5.50
2022-09-24T04:54:29.668Z,5.33
2022-09-24T04:56:51.094Z,6.20
2022-09-24T04:59:12.493Z,5.70
2022-09-24T05:01:34.197Z,5.70
2022-09-24T05:03:56.166Z,5.40
2022-09-24T05:06:17.579Z,5.40
2022-09-24T05:08:39.027Z,5.20
2022-09-24T05:11:02.377Z,5.27
2022-09-24T05:13:23.877Z,4.90
2022-09-24T05:15:45.355Z,5.50
2022-09-24T05:18:06.833Z,5.20
2022-09-24T05:20:28.455Z,5.30
2022-09-24T05:22:50.696Z,6.10
2022-09-24T05:25:13.522Z,7.57
2022-09-24T05:27:35.885Z,8.77
2022-09-24T05:29:57.303Z,7.83
2022-09-24T05:32:20.158Z,9.20
2022-09-24T05:34:43.289Z,9.57
2022-09-24T05:37:05.067Z,5.13
2022-09-24T05:39:30.117Z,5.30
2022-09-24T05:41:56.291Z,6.50
2022-09-24T05:44:20.736Z,7.30
2022-09-24T05:46:42.237Z,6.77
2022-09-24T05:49:03.747Z,7.73
2022-09-24T05:51:25.521Z,9.87
2022-09-24T05:53:47.047Z,9.40
2022-09-24T05:56:10.295Z,9.87
2022-09-24T05:58:32.086Z,7.57
2022-09-24T06:00:53.642Z,7.10
2022-09-24T06:03:17.076Z,7.37
2022-09-24T06:05:38.611Z,8.63
2022-09-24T06:08:00.171Z,8.67
2022-09-24T06:10:21.665Z,8.13
2022-09-24T06:12:43.135Z,8.13
2022-09-24T06:15:04.969Z,7.80
2022-09-24T06:17:26.838Z,6.47
2022-09-24T06:19:48.351Z,6.50
2022-09-24T06:22:09.837Z,5.40
2022-09-24T06:24:31.275Z,5.30
2022-09-24T06:26:52.706Z,5.50
2022-09-24T06:29:15.142Z,6.63
2022-09-24T06:31:36.670Z,6.30
2022-09-24T06:33:58.144Z,6.63
2022-09-24T06:36:19.587Z,6.00
2022-09-24T06:38:41.274Z,6.00
2022-09-24T06:41:05.241Z,5.90
2022-09-24T06:43:26.932Z,6.07
2022-09-24T06:45:48.501Z,5.40
2022-09-24T06:48:14.928Z,5.50
2022-09-24T06:50:40.695Z,5.83
2022-09-24T06:53:05.420Z,5.50
2022-09-24T06:55:27.387Z,5.10
2022-09-24T06:57:49.105Z,5.90
2022-09-24T07:00:11.375Z,5.30
2022-09-24T07:02:32.897Z,5.93
2022-09-24T07:04:54.362Z,6.43
2022-09-24T07:07:32.833Z,6.00
2022-09-24T07:09:54.434Z,5.83
2022-09-24T07:12:15.864Z,5.03
2022-09-24T07:14:37.278Z,5.10
2022-09-24T07:16:58.691Z,5.73
2022-09-24T07:19:20.109Z,5.30
2022-09-24T07:21:41.578Z,6.07
2022-09-24T07:24:03.232Z,5.33
2022-09-24T07:26:24.738Z,5.60
2022-09-24T07:28:46.174Z,5.40
2022-09-24T07:31:08.760Z,4.90
2022-09-24T07:33:31.699Z,4.53
2022-09-24T07:35:53.140Z,5.13
2022-09-24T07:38:15.591Z,5.67
2022-09-24T07:40:37.091Z,8.13
2022-09-24T07:43:00.065Z,6.67
2022-09-24T07:45:23.291Z,6.37
2022-09-24T07:47:44.752Z,6.00
2022-09-24T07:50:06.355Z,4.90
2022-09-24T07:52:27.780Z,4.90
2022-09-24T07:54:49.836Z,5.57
2022-09-24T07:57:15.180Z,5.60
2022-09-24T07:59:36.603Z,5.20
2022-09-24T08:01:59.154Z,5.17
2022-09-24T08:04:20.795Z,4.70
2022-09-24T08:06:47.218Z,4.77
2022-09-24T08:09:09.371Z,5.43
2022-09-24T08:11:31.211Z,5.70
2022-09-24T08:13:52.625Z,5.23
2022-09-24T08:16:16.409Z,5.00
2022-09-24T08:18:37.881Z,5.30
2022-09-24T08:21:04.633Z,4.80
2022-09-24T08:23:26.080Z,5.20
2022-09-24T08:25:47.943Z,5.00
2022-09-24T08:28:12.124Z,4.57
2022-09-24T08:30:34.787Z,4.60
2022-09-24T08:32:56.235Z,4.27
2022-09-24T08:35:17.699Z,6.67
2022-09-24T08:37:39.179Z,14.67
2022-09-24T08:40:01.183Z,5.17
2022-09-24T08:42:44.933Z,4.40
2022-09-24T08:45:27.389Z,4.50
2022-09-24T08:48:10.052Z,4.30
2022-09-24T08:50:34.976Z,5.13
2022-09-24T08:53:06.738Z,4.70
2022-09-24T08:55:36.232Z,5.37
2022-09-24T08:58:17.472Z,5.40
2022-09-24T09:00:58.954Z,5.03
2022-09-24T09:03:40.587Z,4.70
2022-09-24T09:06:12.391Z,4.67
2022-09-24T09:09:06.320Z,4.90
2022-09-24T09:11:32.659Z,4.87
2022-09-24T09:14:03.982Z,4.60
2022-09-24T09:16:29.582Z,4.88
2022-09-24T09:18:55.896Z,4.85
2022-09-24T09:21:36.947Z,4.55
2022-09-24T09:24:01.182Z,4.85
2022-09-24T09:26:23.018Z,4.90
2022-09-24T09:28:46.259Z,5.10
2022-09-24T09:31:32.347Z,5.15
2022-09-24T09:34:12.098Z,5.43
2022-09-24T09:36:47.961Z,5.53
2022-09-24T09:39:33.153Z,5.22
2022-09-24T09:42:04.819Z,5.57
2022-09-24T09:44:30.453Z,5.53
2022-09-24T09:46:58.610Z,5.65
2022-09-24T09:49:20.660Z,4.97
2022-09-24T09:51:44.192Z,5.03
2022-09-24T09:54:05.808Z,5.38
2022-09-24T09:56:44.468Z,4.70
2022-09-24T09:59:16.565Z,5.43
2022-09-24T10:01:41.416Z,5.63
2022-09-24T10:04:04.659Z,4.82
2022-09-24T10:06:29.093Z,7.70
2022-09-24T10:08:50.597Z,4.35
2022-09-24T10:11:15.920Z,3.83
2022-09-24T10:13:37.350Z,3.90
2022-09-24T10:16:01.997Z,4.13
2022-09-24T10:18:29.612Z,3.53
2022-09-24T10:20:51.921Z,3.70
2022-09-24T10:23:21.074Z,4.03
2022-09-24T10:25:51.515Z,4.28
2022-09-24T10:28:38.503Z,4.07
2022-09-24T10:31:05.027Z,4.13
2022-09-24T10:33:35.328Z,4.20
2022-09-24T10:36:13.896Z,3.90
2022-09-24T10:38:35.346Z,3.97
2022-09-24T10:40:57.096Z,3.65
2022-09-24T10:43:21.329Z,4.05
2022-09-24T10:46:08.771Z,3.70
2022-09-24T10:48:39.213Z,4.30
2022-09-24T10:51:06.065Z,3.30
2022-09-24T10:53:53.383Z,3.40
2022-09-24T10:56:40.927Z,3.55
2022-09-24T10:59:34.820Z,2.58
2022-09-24T11:02:20.325Z,2.72
2022-09-24T11:04:58.719Z,3.55
2022-09-24T11:07:28.984Z,3.40
2022-09-24T11:09:56.274Z,3.55
2022-09-24T11:12:45.293Z,3.47
2022-09-24T11:15:25.803Z,3.67
2022-09-24T11:18:16.156Z,3.53
2022-09-24T11:20:39.502Z,5.47
2022-09-24T11:23:31.080Z,3.20
2022-09-24T11:26:11.960Z,3.10
2022-09-24T11:28:50.682Z,2.60
2022-09-24T11:31:30.706Z,3.50
2022-09-24T11:34:04.252Z,4.10
2022-09-24T11:36:50.562Z,4.00
2022-09-24T11:39:26.669Z,4.28
2022-09-24T11:42:32.782Z,4.22
2022-09-24T11:44:56.919Z,8.35
2022-09-24T11:47:45.134Z,3.42
2022-09-24T11:50:20.085Z,3.15
2022-09-24T11:52:48.011Z,2.83
2022-09-24T11:55:23.699Z,3.42
2022-09-24T11:57:53.169Z,2.88
2022-09-24T12:00:20.237Z,3.25
2022-09-24T12:02:48.675Z,3.00
2022-09-24T12:05:23.239Z,3.47
2022-09-24T12:07:58.584Z,3.30
2022-09-24T12:10:32.342Z,3.63
2022-09-24T12:13:07.034Z,3.65
2022-09-24T12:15:39.850Z,3.53
2022-09-24T12:18:08.947Z,3.22
2022-09-24T12:20:32.741Z,3.70
2022-09-24T12:23:09.401Z,3.33
2022-09-24T12:25:46.314Z,32.88
2022-09-24T12:28:38.072Z,3.30
2022-09-24T12:31:23.533Z,3.60
2022-09-24T12:33:55.345Z,3.72
2022-09-24T12:36:29.198Z,2.58
2022-09-24T12:38:57.002Z,3.20
2022-09-24T12:41:27.495Z,2.20
2022-09-24T12:43:51.877Z,2.50
2022-09-24T12:46:42.914Z,2.30
2022-09-24T12:49:04.768Z,2.10
2022-09-24T12:51:35.776Z,2.20
2022-09-24T12:54:00.509Z,2.50
2022-09-24T12:56:30.752Z,2.50
2022-09-24T12:58:53.338Z,3.42
2022-09-24T13:01:20.697Z,3.20
2022-09-24T13:03:46.967Z,2.88
2022-09-24T13:06:34.757Z,2.83
2022-09-24T13:08:56.210Z,2.83
2022-09-24T13:11:44.033Z,2.72
2022-09-24T13:14:18.267Z,2.58
2022-09-24T13:16:41.969Z,2.40
2022-09-24T13:19:06.079Z,2.20
2022-09-24T13:21:29.821Z,2.25
2022-09-24T13:23:51.997Z,2.17
2022-09-24T13:26:30.076Z,2.00
2022-09-24T13:28:56.525Z,2.10
2022-09-24T13:31:22.815Z,2.10
2022-09-24T13:33:48.109Z,2.25
2022-09-24T13:36:17.481Z,2.42
2022-09-24T13:38:52.936Z,2.10
2022-09-24T13:41:46.888Z,2.40
2022-09-24T13:44:42.380Z,1.80
2022-09-24T13:47:27.549Z,2.13
2022-09-24T13:49:51.626Z,1.90
2022-09-24T13:52:35.577Z,1.90
2022-09-24T13:55:00.769Z,1.90
2022-09-24T13:57:22.300Z,1.70
2022-09-24T13:59:43.711Z,1.75
2022-09-24T14:02:32.660Z,1.80
2022-09-24T14:04:58.192Z,2.05
2022-09-24T14:07:21.292Z,1.67
2022-09-24T14:09:44.420Z,2.00
2022-09-24T14:12:22.462Z,1.58
2022-09-24T14:14:47.334Z,1.80
2022-09-24T14:17:12.951Z,1.85
2022-09-24T14:19:34.675Z,1.90
2022-09-24T14:21:58.597Z,1.98
2022-09-24T14:24:36.986Z,1.60
2022-09-24T14:27:07.164Z,1.80
2022-09-24T14:29:43.932Z,1.65
2022-09-24T14:32:22.957Z,2.10
2022-09-24T14:34:44.436Z,47.85
2022-09-24T14:37:23.206Z,42.00
2022-09-24T14:39:48.223Z,22.17
2022-09-24T14:42:17.435Z,1.80
2022-09-24T14:44:44.452Z,1.60
2022-09-24T14:47:25.422Z,1.55
2022-09-24T14:49:46.856Z,1.70
2022-09-24T14:52:26.878Z,3.22
2022-09-24T14:54:48.367Z,4.18
2022-09-24T14:57:12.110Z,2.17
2022-09-24T14:59:37.548Z,3.15
2022-09-24T15:02:15.829Z,2.20
2022-09-24T15:04:37.988Z,2.83
2022-09-24T15:06:59.441Z,2.95
2022-09-24T15:09:28.362Z,2.10
2022-09-24T15:11:49.863Z,2.40
2022-09-24T15:14:18.100Z,2.03
2022-09-24T15:16:39.598Z,2.00
2022-09-24T15:19:06.801Z,2.33
2022-09-24T15:21:28.308Z,2.38
2022-09-24T15:23:49.729Z,2.53
2022-09-24T15:26:11.289Z,3.42
2022-09-24T15:28:32.843Z,2.67
2022-09-24T15:30:54.446Z,2.22
2022-09-24T15:33:17.573Z,2.83
2022-09-24T15:35:40.873Z,2.72
2022-09-24T15:38:02.454Z,2.72
2022-09-24T15:40:25.481Z,2.60
2022-09-24T15:42:47.143Z,2.70
2022-09-24T15:45:17.078Z,2.80
2022-09-24T15:47:38.497Z,2.83
2022-09-24T15:49:59.939Z,2.88
2022-09-24T15:52:27.782Z,2.33
2022-09-24T15:54:50.867Z,2.40
2022-09-24T15:57:12.830Z,2.10
2022-09-24T15:59:34.253Z,2.60
2022-09-24T16:02:01.121Z,2.60
2022-09-24T16:04:22.600Z,2.83
2022-09-24T16:06:44.138Z,3.33
2022-09-24T16:09:05.640Z,3.63
2022-09-24T16:11:27.464Z,2.83
2022-09-24T16:13:50.384Z,2.92
2022-09-24T16:16:12.064Z,4.07
2022-09-24T16:18:33.794Z,3.42
2022-09-24T16:20:56.231Z,2.38
2022-09-24T16:23:18.151Z,2.20
2022-09-24T16:25:40.214Z,2.20
2022-09-24T16:28:01.866Z,3.05
2022-09-24T16:30:23.355Z,2.78
2022-09-24T16:32:44.859Z,2.20
2022-09-24T16:35:06.720Z,2.30
2022-09-24T16:37:28.234Z,2.38
2022-09-24T16:39:49.712Z,2.42
2022-09-24T16:42:11.135Z,3.10
2022-09-24T16:44:32.553Z,3.00
2022-09-24T16:46:54.116Z,2.50
2022-09-24T16:49:15.586Z,3.78
2022-09-24T16:51:37.947Z,3.78
2022-09-24T16:53:59.403Z,22.25
2022-09-24T16:56:20.869Z,25.10
2022-09-24T16:58:43.751Z,26.63
2022-09-24T17:01:06.741Z,24.50
2022-09-24T17:03:28.237Z,24.25
2022-09-24T17:05:49.653Z,13.80
2022-09-24T17:08:11.065Z,13.15
2022-09-24T17:10:32.503Z,10.50
2022-09-24T17:12:53.956Z,5.32
2022-09-24T17:15:20.691Z,4.00
2022-09-24T17:17:49.410Z,3.50
2022-09-24T17:20:11.560Z,3.22
2022-09-24T17:22:32.998Z,3.38
2022-09-24T17:24:54.473Z,3.50
2022-09-24T17:27:15.883Z,3.17
2022-09-24T17:29:37.350Z,2.80
2022-09-24T17:31:59.382Z,3.05
2022-09-24T17:34:20.813Z,2.88
2022-09-24T17:36:42.682Z,2.80
2022-09-24T17:39:05.793Z,2.50
2022-09-24T17:41:29.026Z,3.60
2022-09-24T17:43:51.541Z,4.25
2022-09-24T17:46:21.754Z,3.25
2022-09-24T17:48:45.393Z,3.00
2022-09-24T17:51:10.518Z,25.88
2022-09-24T17:53:34.280Z,12.32
2022-09-24T17:55:55.708Z,5.95
2022-09-24T17:58:18.615Z,4.55
2022-09-24T18:00:40.044Z,6.13
2022-09-24T18:03:01.572Z,4.68
2022-09-24T18:05:23.098Z,7.50
2022-09-24T18:07:45.302Z,12.05
2022-09-24T18:10:07.562Z,7.00
2022-09-24T18:12:29.110Z,4.40
2022-09-24T18:14:50.563Z,7.78
2022-09-24T18:17:11.973Z,5.68
2022-09-24T18:19:33.398Z,3.85
2022-09-24T18:21:56.130Z,5.07
2022-09-24T18:24:17.895Z,4.53
2022-09-24T18:26:40.433Z,4.45
2022-09-24T18:29:06.074Z,6.50
2022-09-24T18:31:29.755Z,11.65
2022-09-24T18:33:52.982Z,4.38
2022-09-24T18:36:17.807Z,23.13
2022-09-24T18:38:39.550Z,17.52
2022-09-24T18:41:06.214Z,15.57
2022-09-24T18:43:28.419Z,7.82
2022-09-24T18:45:49.915Z,14.68
2022-09-24T18:48:11.308Z,12.73
2022-09-24T18:50:32.748Z,9.55
2022-09-24T18:52:54.166Z,8.98
2022-09-24T18:55:15.629Z,3.60
2022-09-24T18:57:37.834Z,4.90
2022-09-24T18:59:59.321Z,5.67
2022-09-24T19:02:25.234Z,5.10
2022-09-24T19:04:46.936Z,4.70
2022-09-24T19:07:09.028Z,4.85
2022-09-24T19:09:30.513Z,4.67
2022-09-24T19:11:51.944Z,4.40
2022-09-24T19:14:15.072Z,7.13
2022-09-24T19:16:36.509Z,4.30
2022-09-24T19:18:59.481Z,3.80
2022-09-24T19:21:25.539Z,3.20
2022-09-24T19:23:49.735Z,4.20
2022-09-24T19:26:13.215Z,4.63
2022-09-24T19:28:36.380Z,4.90
2022-09-24T19:30:58.003Z,6.73
2022-09-24T19:33:19.501Z,5.33
2022-09-24T19:35:41.227Z,4.17
2022-09-24T19:38:02.784Z,4.40
2022-09-24T19:40:24.316Z,4.53
2022-09-24T19:42:47.066Z,14.53
2022-09-24T19:45:10.016Z,21.77
2022-09-24T19:47:34.518Z,29.43
2022-09-24T19:49:55.960Z,29.90
2022-09-24T19:52:17.392Z,13.50
2022-09-24T19:54:38.833Z,19.23
2022-09-24T19:57:00.348Z,21.83
2022-09-24T19:59:21.772Z,24.37
2022-09-24T20:01:44.639Z,24.43
2022-09-24T20:04:07.507Z,31.93
2022-09-24T20:06:31.315Z,37.10
2022-09-24T20:08:53.136Z,30.03
2022-09-24T20:11:19.353Z,28.87
2022-09-24T20:13:46.251Z,27.67
2022-09-24T20:16:08.286Z,25.67
2022-09-24T20:18:31.345Z,21.70
2022-09-24T20:20:55.745Z,19.27
2022-09-24T20:23:17.428Z,16.93
2022-09-24T20:25:57.466Z,13.43
2022-09-24T20:28:19.047Z,10.93
2022-09-24T20:30:40.836Z,11.10
2022-09-24T20:33:02.340Z,15.20
2022-09-24T20:35:23.765Z,6.70
2022-09-24T20:37:47.575Z,26.90
2022-09-24T20:40:09.996Z,27.20
2022-09-24T20:42:31.512Z,17.57
2022-09-24T20:44:53.491Z,20.70
2022-09-24T20:47:15.403Z,17.53
2022-09-24T20:49:37.160Z,16.73
2022-09-24T20:51:58.707Z,15.00
2022-09-24T20:54:21.282Z,12.80
2022-09-24T20:56:43.427Z,5.50
2022-09-24T20:59:04.902Z,5.23
2022-09-24T21:01:26.369Z,4.50
2022-09-24T21:03:50.066Z,6.27
2022-09-24T21:06:13.149Z,8.17
2022-09-24T21:08:40.381Z,10.53
2022-09-24T21:11:06.966Z,6.73
2022-09-24T21:13:28.542Z,7.57
2022-09-24T21:16:01.748Z,5.07
2022-09-24T21:18:28.232Z,4.80
2022-09-24T21:20:54.699Z,4.43
2022-09-24T21:23:16.128Z,4.87
2022-09-24T21:25:53.996Z,4.93
2022-09-24T21:28:16.081Z,4.70
2022-09-24T21:30:37.660Z,4.93
2022-09-24T21:32:59.219Z,5.00
2022-09-24T21:35:20.838Z,5.03
2022-09-24T21:37:42.306Z,5.63
2022-09-24T21:40:03.915Z,5.30
2022-09-24T21:42:26.937Z,6.77
2022-09-24T21:44:48.358Z,6.90
2022-09-24T21:47:09.798Z,8.80
2022-09-24T21:49:33.570Z,7.53
2022-09-24T21:51:56.942Z,8.00
2022-09-24T21:54:18.533Z,9.13
2022-09-24T21:56:40.024Z,9.67
2022-09-24T21:59:22.413Z,8.67
2022-09-24T22:01:44.035Z,8.83
2022-09-24T22:04:08.324Z,9.30
2022-09-24T22:06:31.408Z,9.97
2022-09-24T22:08:56.088Z,7.70
2022-09-24T22:11:17.993Z,6.97
2022-09-24T22:13:40.319Z,6.57
2022-09-24T22:16:01.939Z,7.13
2022-09-24T22:18:24.274Z,8.97
2022-09-24T22:20:45.721Z,9.60
2022-09-24T22:23:07.126Z,9.93
2022-09-24T22:25:28.550Z,10.37
2022-09-24T22:27:49.955Z,9.00
2022-09-24T22:30:11.778Z,8.43
2022-09-24T22:32:33.239Z,6.77
2022-09-24T22:35:13.225Z,6.30
2022-09-24T22:37:34.694Z,6.30
2022-09-24T22:39:56.218Z,7.47
2022-09-24T22:42:17.640Z,8.33
2022-09-24T22:44:39.045Z,9.40
2022-09-24T22:47:00.493Z,9.40
2022-09-24T22:49:23.301Z,8.80
2022-09-24T22:51:44.757Z,8.77
2022-09-24T22:54:07.286Z,8.03
2022-09-24T22:56:30.046Z,7.40
2022-09-24T22:58:56.312Z,7.80
2022-09-24T23:01:23.558Z,8.50
2022-09-24T23:03:45.455Z,8.93
2022-09-24T23:06:08.229Z,9.13
2022-09-24T23:08:33.326Z,9.50
2022-09-24T23:10:54.867Z,9.47
2022-09-24T23:13:16.262Z,9.00
2022-09-24T23:15:37.711Z,7.87
2022-09-24T23:17:59.109Z,8.37
2022-09-24T23:20:21.964Z,7.70
2022-09-24T23:22:43.386Z,7.97
2022-09-24T23:25:05.215Z,8.60
2022-09-24T23:27:27.009Z,11.67
2022-09-24T23:29:49.118Z,7.90
2022-09-24T23:32:11.882Z,6.63
2022-09-24T23:34:33.328Z,6.57
2022-09-24T23:36:54.740Z,7.33
2022-09-24T23:39:16.199Z,6.63
2022-09-24T23:41:37.756Z,6.57
2022-09-24T23:44:00.128Z,6.80
2022-09-24T23:46:21.723Z,6.33
2022-09-24T23:48:43.265Z,6.43
2022-09-24T23:51:05.804Z,6.60
2022-09-24T23:53:27.711Z,7.37
2022-09-24T23:55:49.715Z,7.17
2022-09-24T23:58:11.133Z,8.17
